Rabigh, Saudi Arabia
Current Conditions -  °F | °C
As of 3:00 PM on Saturday 20 Dec 2014 (Local Time) from OEJN Reporting Station
Scattered Clouds Scattered Clouds  
Wind Chill: 88°   Ceiling: Unl
Heat Index: 90°   Visibility: 6mi
Dew Point: 66°   Wind: 12mph
Humidity: 49%   Direction: 220°SW
Pressure: 29.88"   Gusts: NA
Location:  22.8°N, 39.04°E
Report Text: OEJN 201200Z 22010KT 9999 SCT040 31/19 Q1012 NOSIG
Loading
Personal Weather Stations






























Interactive Weather Map New forecast layout! Learn more

10-Day Weather Forecast

Advertisements
Track Severe Weather on mobile